This is the latest recevied weather packets stored in our database for station/object DL6ABE-13. If no packets are shown the sender has not sent any weather packets the latest 10 day(s).
| Time | Temp. | Humidity | Pressure | Rain* | Wind** | Luminosity | Snow |
|---|---|---|---|---|---|---|---|
| 1778166561 | 18.33° C | 63% | 1011.2 hPa | - | - | - | - |
| 1778159938 | 18.89° C | 63% | 1011.3 hPa | - | - | - | - |
| 1778156325 | 17.78° C | 68% | 1011.3 hPa | - | - | - | - |
| 1778155124 | 17.78° C | 69% | 1011.3 hPa | - | - | - | - |
| 1778153315 | 17.22° C | 72% | 1011 hPa | - | - | - | - |
| 1778152719 | 17.22° C | 72% | 1010.9 hPa | - | - | - | - |
| 1778149103 | 16.11° C | 76% | 1011.1 hPa | - | - | - | - |
| 1778145533 | 15.56° C | 79% | 1011 hPa | - | - | - | - |
| 1778143686 | 15° C | 81% | 1010.8 hPa | - | - | - | - |
| 1778143106 | 15° C | 82% | 1010.7 hPa | - | - | - | - |
| 1778142479 | 14.44° C | 83% | 1010.7 hPa | - | - | - | - |
| 1778138868 | 13.33° C | 86% | 1010.4 hPa | - | - | - | - |
| 1778137665 | 12.78° C | 87% | 1010.2 hPa | - | - | - | - |
| 1778137062 | 12.78° C | 87% | 1010.1 hPa | - | - | - | - |
| 1778135259 | 11.67° C | 89% | 1009.8 hPa | - | - | - | - |
| 1778134655 | 11.67° C | 89% | 1009.8 hPa | - | - | - | - |
| 1778131044 | 11.11° C | 90% | 1009.1 hPa | - | - | - | - |
| 1778123218 | 11.11° C | 89% | 1008 hPa | - | - | - | - |
| 1778122014 | 11.11° C | 90% | 1007.9 hPa | - | - | - | - |
| 1778115412 | 11.11° C | 89% | 1007 hPa | - | - | - | - |
| 1778114187 | 11.11° C | 89% | 1006.8 hPa | - | - | - | - |
| 1778109974 | 11.67° C | 89% | 1006.4 hPa | - | - | - | - |
| 1778105761 | 11.67° C | 89% | 1005.9 hPa | - | - | - | - |
| 1778094322 | 12.78° C | 88% | 1004.7 hPa | - | - | - | - |
| 1778093116 | 12.78° C | 88% | 1004.4 hPa | - | - | - | - |
* Rain since midnight (hover to see other rain measurements)
** Current wind speed in m/s (hover to see current wind gust speed)